createdAt,value
2018-10-09T00:02:28.227Z,16.10
2018-10-09T00:04:56.999Z,15.40
2018-10-09T00:07:25.955Z,14.10
2018-10-09T00:09:54.764Z,19.83
2018-10-09T00:12:23.571Z,14.17
2018-10-09T00:14:52.354Z,14.80
2018-10-09T00:17:21.131Z,13.90
2018-10-09T00:19:49.997Z,15.23
2018-10-09T00:22:18.840Z,13.80
2018-10-09T00:24:47.640Z,13.70
2018-10-09T00:27:16.524Z,22.80
2018-10-09T00:29:45.317Z,14.40
2018-10-09T00:32:14.142Z,12.97
2018-10-09T00:34:42.903Z,14.93
2018-10-09T00:37:11.710Z,22.83
2018-10-09T00:39:40.516Z,32.30
2018-10-09T00:42:09.312Z,24.37
2018-10-09T00:44:38.160Z,21.83
2018-10-09T00:47:06.980Z,20.43
2018-10-09T00:49:35.783Z,20.90
2018-10-09T00:52:04.687Z,15.77
2018-10-09T00:54:33.528Z,14.17
2018-10-09T00:57:02.327Z,17.40
2018-10-09T00:59:31.201Z,13.13
2018-10-09T01:02:00.061Z,14.07
2018-10-09T01:04:28.977Z,23.50
2018-10-09T01:06:58.340Z,22.83
2018-10-09T01:09:27.215Z,18.67
2018-10-09T01:11:56.001Z,20.23
2018-10-09T01:14:24.755Z,15.90
2018-10-09T01:16:53.544Z,13.93
2018-10-09T01:19:22.386Z,17.27
2018-10-09T01:21:51.159Z,16.50
2018-10-09T01:24:19.969Z,13.97
2018-10-09T01:26:48.825Z,16.17
2018-10-09T01:29:17.684Z,17.33
2018-10-09T01:31:46.658Z,17.00
2018-10-09T01:34:15.447Z,18.13
2018-10-09T01:36:44.351Z,18.27
2018-10-09T01:39:13.156Z,14.13
2018-10-09T01:41:41.943Z,16.93
2018-10-09T01:44:10.979Z,18.83
2018-10-09T01:46:39.809Z,19.67
2018-10-09T01:49:08.680Z,15.60
2018-10-09T01:51:37.595Z,17.10
2018-10-09T01:54:06.922Z,22.00
2018-10-09T01:56:36.201Z,16.93
2018-10-09T01:59:05.367Z,15.13
2018-10-09T02:01:34.359Z,19.33
2018-10-09T02:04:03.516Z,15.50
2018-10-09T02:06:32.404Z,14.80
2018-10-09T02:09:01.357Z,15.73
2018-10-09T02:11:30.233Z,18.73
2018-10-09T02:13:59.040Z,18.03
2018-10-09T02:16:27.856Z,15.27
2018-10-09T02:18:56.635Z,16.40
2018-10-09T02:21:25.493Z,17.17
2018-10-09T02:23:54.337Z,14.23
2018-10-09T02:26:23.144Z,15.43
2018-10-09T02:28:52.012Z,18.33
2018-10-09T02:31:20.823Z,17.33
2018-10-09T02:33:49.640Z,15.23
2018-10-09T02:36:18.485Z,17.23
2018-10-09T02:38:47.350Z,16.57
2018-10-09T02:41:17.091Z,17.20
2018-10-09T02:43:45.883Z,15.40
2018-10-09T02:46:14.706Z,14.97
2018-10-09T02:48:43.579Z,15.47
2018-10-09T02:51:12.338Z,17.43
2018-10-09T02:53:41.118Z,18.23
2018-10-09T02:56:09.965Z,17.90
2018-10-09T02:58:38.799Z,23.37
2018-10-09T03:01:08.303Z,18.77
2018-10-09T03:03:37.287Z,18.87
2018-10-09T03:06:06.123Z,20.53
2018-10-09T03:08:34.923Z,18.80
2018-10-09T03:11:03.908Z,19.13
2018-10-09T03:13:32.779Z,15.53
2018-10-09T03:16:01.858Z,16.37
2018-10-09T03:18:30.813Z,20.20
2018-10-09T03:20:59.583Z,15.90
2018-10-09T03:23:29.272Z,18.33
2018-10-09T03:25:58.075Z,18.43
2018-10-09T03:28:26.980Z,18.70
2018-10-09T03:30:55.928Z,15.27
2018-10-09T03:33:24.736Z,18.03
2018-10-09T03:35:53.569Z,17.97
2018-10-09T03:38:22.385Z,17.20
2018-10-09T03:40:51.209Z,16.50
2018-10-09T03:43:19.983Z,16.30
2018-10-09T03:45:48.776Z,18.37
2018-10-09T03:48:17.639Z,20.10
2018-10-09T03:50:46.460Z,15.93
2018-10-09T03:53:15.300Z,21.30
2018-10-09T03:55:44.141Z,17.27
2018-10-09T03:58:12.911Z,18.50
2018-10-09T04:00:41.687Z,17.73
2018-10-09T04:03:10.448Z,19.27
2018-10-09T04:05:39.217Z,17.07
2018-10-09T04:08:08.007Z,21.17
2018-10-09T04:10:36.820Z,22.40
2018-10-09T04:13:05.708Z,19.20
2018-10-09T04:15:34.618Z,20.30
2018-10-09T04:18:03.486Z,17.43
2018-10-09T04:20:32.306Z,29.67
2018-10-09T04:23:01.253Z,19.80
2018-10-09T04:25:30.035Z,24.50
2018-10-09T04:27:58.876Z,19.20
2018-10-09T04:30:27.705Z,20.33
2018-10-09T04:32:56.524Z,21.90
2018-10-09T04:35:25.425Z,19.80
2018-10-09T04:37:54.439Z,25.07
2018-10-09T04:40:23.434Z,24.10
2018-10-09T04:42:52.224Z,30.73
2018-10-09T04:45:21.027Z,24.20
2018-10-09T04:47:50.081Z,28.73
2018-10-09T04:50:18.938Z,38.20
2018-10-09T04:52:47.729Z,28.07
2018-10-09T04:55:16.576Z,33.37
2018-10-09T04:57:45.392Z,28.33
2018-10-09T05:00:14.240Z,24.17
2018-10-09T05:02:43.024Z,23.83
2018-10-09T05:05:11.864Z,27.00
2018-10-09T05:07:40.672Z,28.27
2018-10-09T05:10:09.926Z,30.00
2018-10-09T05:12:38.788Z,30.10
2018-10-09T05:15:07.859Z,34.20
2018-10-09T05:17:37.183Z,31.57
2018-10-09T05:20:07.519Z,30.00
2018-10-09T05:22:36.331Z,21.60
2018-10-09T05:25:05.173Z,35.33
2018-10-09T05:27:34.081Z,34.10
2018-10-09T05:30:04.999Z,47.80
2018-10-09T05:32:33.791Z,32.10
2018-10-09T05:35:02.667Z,31.80
2018-10-09T05:37:31.505Z,23.67
2018-10-09T05:40:00.515Z,33.97
2018-10-09T05:42:29.263Z,28.20
2018-10-09T05:44:58.086Z,25.13
2018-10-09T05:47:26.981Z,18.87
2018-10-09T05:49:56.024Z,21.70
2018-10-09T05:52:24.820Z,18.03
2018-10-09T05:54:53.898Z,22.57
2018-10-09T05:57:22.686Z,22.27
2018-10-09T05:59:51.823Z,20.20
2018-10-09T06:02:20.651Z,21.17
2018-10-09T06:04:49.496Z,25.87
2018-10-09T06:07:18.414Z,21.93
2018-10-09T06:09:47.293Z,23.77
2018-10-09T06:12:16.112Z,27.03
2018-10-09T06:14:45.028Z,22.60
2018-10-09T06:17:14.369Z,26.70
2018-10-09T06:19:43.288Z,23.57
2018-10-09T06:22:12.205Z,25.60
2018-10-09T06:24:41.200Z,31.30
2018-10-09T06:27:10.049Z,22.40
2018-10-09T06:29:38.884Z,24.93
2018-10-09T06:32:07.840Z,23.70
2018-10-09T06:34:36.668Z,27.00
2018-10-09T06:37:05.548Z,26.70
2018-10-09T06:39:34.628Z,22.40
2018-10-09T06:42:03.560Z,29.30
2018-10-09T06:44:32.618Z,27.83
2018-10-09T06:47:01.496Z,20.97
2018-10-09T06:49:30.568Z,20.57
2018-10-09T06:51:59.469Z,21.53
2018-10-09T06:54:28.314Z,20.40
2018-10-09T06:56:57.384Z,17.37
2018-10-09T06:59:26.175Z,20.93
2018-10-09T07:01:55.090Z,20.53
2018-10-09T07:04:23.957Z,27.27
2018-10-09T07:06:52.853Z,34.67
2018-10-09T07:09:21.722Z,21.37
2018-10-09T07:11:50.708Z,19.93
2018-10-09T07:14:19.543Z,22.37
2018-10-09T07:16:48.432Z,18.77
2018-10-09T07:19:19.180Z,18.63
2018-10-09T07:21:48.137Z,17.10
2018-10-09T07:24:16.936Z,16.63
2018-10-09T07:26:45.821Z,17.97
2018-10-09T07:29:14.903Z,21.20
2018-10-09T07:31:43.771Z,19.07
2018-10-09T07:34:12.618Z,21.33
2018-10-09T07:36:41.407Z,19.77
2018-10-09T07:39:12.346Z,16.57
2018-10-09T07:41:41.377Z,12.53
2018-10-09T07:44:10.214Z,9.50
2018-10-09T07:46:39.061Z,9.13
2018-10-09T07:49:07.885Z,11.07
2018-10-09T07:51:36.695Z,13.17
2018-10-09T07:54:05.534Z,10.27
2018-10-09T07:56:34.347Z,11.27
2018-10-09T07:59:03.144Z,9.50
2018-10-09T08:01:32.010Z,13.63
2018-10-09T08:04:00.920Z,10.60
2018-10-09T08:06:29.720Z,9.70
2018-10-09T08:08:58.556Z,7.50
2018-10-09T08:11:27.358Z,10.50
2018-10-09T08:13:56.177Z,6.97
2018-10-09T08:16:25.015Z,8.80
2018-10-09T08:18:54.062Z,8.20
2018-10-09T08:21:22.936Z,6.40
2018-10-09T08:23:51.840Z,10.77
2018-10-09T08:26:20.731Z,8.43
2018-10-09T08:28:49.564Z,7.90
2018-10-09T08:31:18.343Z,7.50
2018-10-09T08:33:47.200Z,8.57
2018-10-09T08:36:16.157Z,7.20
2018-10-09T08:38:44.976Z,8.70
2018-10-09T08:41:13.785Z,9.23
2018-10-09T08:43:42.818Z,9.27
2018-10-09T08:46:11.656Z,5.77
2018-10-09T08:48:41.143Z,8.30
2018-10-09T08:51:09.963Z,10.83
2018-10-09T08:53:38.823Z,9.90
2018-10-09T08:56:07.924Z,7.87
2018-10-09T08:58:36.921Z,6.60
2018-10-09T09:01:05.748Z,9.33
2018-10-09T09:03:34.624Z,7.23
2018-10-09T09:06:03.602Z,7.50
2018-10-09T09:08:32.404Z,4.40
2018-10-09T09:11:01.313Z,4.13
2018-10-09T09:13:30.143Z,5.97
2018-10-09T09:15:58.957Z,4.00
2018-10-09T09:18:27.748Z,9.13
2018-10-09T09:20:56.555Z,6.77
2018-10-09T09:23:25.555Z,8.70
2018-10-09T09:25:54.416Z,5.30
2018-10-09T09:28:23.711Z,8.03
2018-10-09T09:30:52.577Z,7.33
2018-10-09T09:33:21.406Z,10.40
2018-10-09T09:35:50.265Z,6.07
2018-10-09T09:38:19.088Z,5.37
2018-10-09T09:40:48.124Z,9.20
2018-10-09T09:43:17.165Z,9.43
2018-10-09T09:45:46.022Z,8.80
2018-10-09T09:48:14.966Z,8.23
2018-10-09T09:50:43.772Z,10.73
2018-10-09T09:53:12.610Z,11.87
2018-10-09T09:55:41.416Z,7.33
2018-10-09T09:58:10.488Z,7.57
2018-10-09T10:00:44.624Z,7.57
2018-10-09T10:03:13.400Z,9.07
2018-10-09T10:05:42.201Z,5.97
2018-10-09T10:08:11.052Z,12.23
2018-10-09T10:10:39.865Z,8.53
2018-10-09T10:13:08.775Z,8.87
2018-10-09T10:15:37.663Z,7.83
2018-10-09T10:18:06.613Z,7.10
2018-10-09T10:20:35.398Z,9.03
2018-10-09T10:23:04.240Z,7.97
2018-10-09T10:25:33.007Z,11.03
2018-10-09T10:28:01.815Z,8.37
2018-10-09T10:30:30.707Z,6.20
2018-10-09T10:32:59.504Z,8.03
2018-10-09T10:35:28.291Z,7.70
2018-10-09T10:37:57.073Z,8.87
2018-10-09T10:40:25.878Z,8.33
2018-10-09T10:42:54.652Z,7.33
2018-10-09T10:45:23.440Z,7.50
2018-10-09T10:47:52.304Z,9.13
2018-10-09T10:50:21.069Z,4.67
2018-10-09T10:52:49.857Z,8.70
2018-10-09T10:55:19.006Z,5.67
2018-10-09T10:57:47.814Z,8.30
2018-10-09T11:00:16.640Z,5.23
2018-10-09T11:02:45.519Z,3.80
2018-10-09T11:05:14.363Z,4.73
2018-10-09T11:07:43.174Z,3.10
2018-10-09T11:10:12.021Z,4.70
2018-10-09T11:12:40.828Z,5.57
2018-10-09T11:15:09.681Z,5.53
2018-10-09T11:17:38.615Z,3.73
2018-10-09T11:20:07.462Z,10.47
2018-10-09T11:22:36.263Z,9.20
2018-10-09T11:25:05.533Z,5.73
2018-10-09T11:27:34.385Z,4.77
2018-10-09T11:30:04.565Z,7.87
2018-10-09T11:32:33.488Z,3.40
2018-10-09T11:35:02.478Z,3.53
2018-10-09T11:37:31.288Z,7.77
2018-10-09T11:40:00.156Z,10.50
2018-10-09T11:42:29.006Z,4.17
2018-10-09T11:44:57.847Z,6.83
2018-10-09T11:47:26.630Z,8.03
2018-10-09T11:49:55.535Z,6.20
2018-10-09T11:52:24.357Z,6.47
2018-10-09T11:54:53.139Z,7.63
2018-10-09T11:57:21.965Z,5.37
2018-10-09T11:59:50.787Z,5.47
2018-10-09T12:02:19.976Z,4.57
2018-10-09T12:04:48.780Z,3.83
2018-10-09T12:07:17.561Z,3.87
2018-10-09T12:09:46.394Z,6.13
2018-10-09T12:12:15.252Z,2.73
2018-10-09T12:14:44.081Z,3.53
2018-10-09T12:17:13.339Z,6.07
2018-10-09T12:19:42.163Z,8.07
2018-10-09T12:22:11.222Z,5.10
2018-10-09T12:24:40.103Z,6.23
2018-10-09T12:27:09.024Z,5.63
2018-10-09T12:29:38.037Z,5.20
2018-10-09T12:32:07.097Z,3.10
2018-10-09T12:34:35.915Z,7.57
2018-10-09T12:37:04.745Z,6.27
2018-10-09T12:39:33.603Z,2.77
2018-10-09T12:42:02.409Z,10.80
2018-10-09T12:44:31.241Z,3.50
2018-10-09T12:47:00.449Z,6.73
2018-10-09T12:49:29.248Z,4.57
2018-10-09T12:51:58.079Z,3.00
2018-10-09T12:54:26.875Z,3.07
2018-10-09T12:56:55.711Z,3.57
2018-10-09T12:59:24.757Z,4.80
2018-10-09T13:01:53.565Z,4.80
2018-10-09T13:04:22.403Z,2.60
2018-10-09T13:06:51.234Z,3.03
2018-10-09T13:09:20.148Z,6.07
2018-10-09T13:11:49.140Z,9.93
2018-10-09T13:14:17.975Z,5.97
2018-10-09T13:16:46.832Z,3.47
2018-10-09T13:19:15.668Z,5.13
2018-10-09T13:21:44.677Z,5.37
2018-10-09T13:24:13.525Z,3.97
2018-10-09T13:26:42.443Z,4.70
2018-10-09T13:29:11.236Z,2.87
2018-10-09T13:31:40.073Z,4.43
2018-10-09T13:34:11.803Z,2.53
2018-10-09T13:36:40.753Z,4.83
2018-10-09T13:39:09.732Z,3.07
2018-10-09T13:41:38.533Z,2.60
2018-10-09T13:44:07.842Z,4.47
2018-10-09T13:46:38.469Z,5.80
2018-10-09T13:49:08.085Z,7.30
2018-10-09T13:51:37.369Z,7.10
2018-10-09T13:54:06.308Z,5.50
2018-10-09T13:56:35.144Z,4.57
2018-10-09T13:59:04.421Z,7.90
2018-10-09T14:01:33.256Z,7.60
2018-10-09T14:04:02.125Z,5.80
2018-10-09T14:06:30.993Z,3.03
2018-10-09T14:08:59.791Z,5.57
2018-10-09T14:11:28.646Z,5.83
2018-10-09T14:13:57.441Z,7.30
2018-10-09T14:16:26.394Z,3.43
2018-10-09T14:18:55.298Z,6.17
2018-10-09T14:21:30.630Z,3.93
2018-10-09T14:23:59.496Z,4.00
2018-10-09T14:26:28.270Z,6.27
2018-10-09T14:28:57.047Z,8.17
2018-10-09T14:31:26.037Z,8.40
2018-10-09T14:33:54.872Z,6.27
2018-10-09T14:36:23.726Z,4.63
2018-10-09T14:38:52.569Z,5.20
2018-10-09T14:41:21.356Z,4.80
2018-10-09T14:43:50.176Z,4.33
2018-10-09T14:46:19.217Z,3.80
2018-10-09T14:48:48.046Z,4.13
2018-10-09T14:51:16.836Z,4.60
2018-10-09T14:53:45.643Z,4.27
2018-10-09T14:56:14.421Z,4.53
2018-10-09T14:58:43.186Z,5.03
2018-10-09T15:01:12.028Z,7.23
2018-10-09T15:03:40.816Z,4.33
2018-10-09T15:06:09.654Z,4.17
2018-10-09T15:08:38.502Z,7.70
2018-10-09T15:11:07.554Z,6.57
2018-10-09T15:13:36.368Z,10.00
2018-10-09T15:16:05.190Z,7.80
2018-10-09T15:18:33.983Z,7.17
2018-10-09T15:21:02.793Z,9.67
2018-10-09T15:23:31.577Z,11.47
2018-10-09T15:26:00.400Z,7.10
2018-10-09T15:28:29.616Z,5.17
2018-10-09T15:30:58.435Z,14.27
2018-10-09T15:33:27.329Z,6.10
2018-10-09T15:35:56.219Z,12.63
2018-10-09T15:38:25.098Z,17.00
2018-10-09T15:40:53.921Z,11.30
2018-10-09T15:43:22.792Z,11.47
2018-10-09T15:45:51.597Z,13.93
2018-10-09T15:48:20.421Z,9.70
2018-10-09T15:50:49.297Z,8.20
2018-10-09T15:53:18.143Z,5.77
2018-10-09T15:55:47.105Z,10.27
2018-10-09T15:58:15.993Z,3.53
2018-10-09T16:00:45.113Z,9.83
2018-10-09T16:03:13.969Z,11.00
2018-10-09T16:05:42.771Z,4.73
2018-10-09T16:08:11.585Z,7.43
2018-10-09T16:10:40.445Z,7.13
2018-10-09T16:13:09.282Z,6.73
2018-10-09T16:15:38.085Z,9.00
2018-10-09T16:18:06.923Z,5.73
2018-10-09T16:20:35.949Z,8.10
2018-10-09T16:23:04.932Z,10.03
2018-10-09T16:25:34.134Z,7.97
2018-10-09T16:28:02.970Z,9.23
2018-10-09T16:30:32.053Z,10.90
2018-10-09T16:33:00.880Z,7.90
2018-10-09T16:35:29.769Z,7.43
2018-10-09T16:37:58.611Z,13.53
2018-10-09T16:40:27.494Z,14.33
2018-10-09T16:42:56.472Z,10.93
2018-10-09T16:45:25.601Z,14.00
2018-10-09T16:47:54.478Z,10.37
2018-10-09T16:50:23.417Z,16.20
2018-10-09T16:52:52.240Z,10.97
2018-10-09T16:55:21.006Z,10.97
2018-10-09T16:57:49.837Z,13.20
2018-10-09T17:00:20.200Z,15.43
2018-10-09T17:02:49.123Z,15.47
2018-10-09T17:05:17.988Z,9.77
2018-10-09T17:07:46.792Z,11.67
2018-10-09T17:10:15.609Z,9.73
2018-10-09T17:12:44.452Z,7.53
2018-10-09T17:15:13.264Z,5.63
2018-10-09T17:17:42.335Z,6.00
2018-10-09T17:20:11.203Z,9.10
2018-10-09T17:22:40.151Z,10.03
2018-10-09T17:25:09.081Z,10.77
2018-10-09T17:27:38.044Z,6.47
2018-10-09T17:30:08.937Z,10.53
2018-10-09T17:32:38.254Z,6.63
2018-10-09T17:35:07.602Z,12.07
2018-10-09T17:37:36.630Z,9.63
2018-10-09T17:40:05.512Z,12.87
2018-10-09T17:42:34.632Z,10.37
2018-10-09T17:45:03.597Z,13.20
2018-10-09T17:47:32.413Z,10.87
2018-10-09T17:50:01.260Z,14.23
2018-10-09T17:52:30.057Z,11.57
2018-10-09T17:54:58.872Z,9.83
2018-10-09T17:57:27.733Z,19.03
2018-10-09T17:59:56.585Z,12.23
2018-10-09T18:02:25.433Z,12.07
2018-10-09T18:04:54.268Z,13.83
2018-10-09T18:07:23.676Z,14.27
2018-10-09T18:09:52.595Z,16.47
2018-10-09T18:12:21.438Z,12.90
2018-10-09T18:14:50.456Z,12.30
2018-10-09T18:17:19.586Z,12.17
2018-10-09T18:19:48.481Z,12.97
2018-10-09T18:22:17.274Z,12.10
2018-10-09T18:24:48.453Z,17.60
2018-10-09T18:27:17.277Z,19.37
2018-10-09T18:29:46.105Z,17.83
2018-10-09T18:32:15.022Z,16.57
2018-10-09T18:34:43.874Z,16.87
2018-10-09T18:37:12.703Z,17.50
2018-10-09T18:39:41.541Z,15.93
2018-10-09T18:42:10.415Z,12.57
2018-10-09T18:44:39.251Z,15.10
2018-10-09T18:47:43.868Z,13.87
2018-10-09T18:50:12.993Z,18.60
2018-10-09T18:52:42.463Z,13.27
2018-10-09T18:55:13.713Z,10.20
2018-10-09T18:57:42.743Z,11.23
2018-10-09T19:00:13.431Z,14.87
2018-10-09T19:02:42.214Z,13.37
2018-10-09T19:05:11.544Z,15.00
2018-10-09T19:07:41.076Z,17.13
2018-10-09T19:10:10.671Z,15.00
2018-10-09T19:12:39.632Z,15.13
2018-10-09T19:15:08.485Z,19.30
2018-10-09T19:17:37.325Z,19.43
2018-10-09T19:20:06.267Z,13.93
2018-10-09T19:22:35.052Z,16.93
2018-10-09T19:25:03.943Z,17.37
2018-10-09T19:27:32.741Z,22.43
2018-10-09T19:30:01.617Z,14.33
2018-10-09T19:32:30.515Z,21.93
2018-10-09T19:34:59.568Z,21.23
2018-10-09T19:37:28.509Z,24.03
2018-10-09T19:39:57.425Z,20.93
2018-10-09T19:42:26.258Z,19.43
2018-10-09T19:44:55.196Z,19.00
2018-10-09T19:47:23.952Z,17.57
2018-10-09T19:49:52.736Z,19.87
2018-10-09T19:52:21.568Z,17.60
2018-10-09T19:54:50.608Z,17.60
2018-10-09T19:57:19.478Z,19.10
2018-10-09T19:59:48.576Z,15.37
2018-10-09T20:02:17.395Z,13.83
2018-10-09T20:04:46.251Z,13.50
2018-10-09T20:07:15.057Z,14.77
2018-10-09T20:09:43.844Z,11.17
2018-10-09T20:12:12.688Z,13.43
2018-10-09T20:14:41.521Z,12.13
2018-10-09T20:17:11.317Z,18.67
2018-10-09T20:19:40.069Z,13.80
2018-10-09T20:22:10.646Z,12.73
2018-10-09T20:24:39.554Z,14.90
2018-10-09T20:27:08.605Z,28.13
2018-10-09T20:29:37.400Z,17.00
2018-10-09T20:32:06.236Z,14.77
2018-10-09T20:34:35.065Z,12.63
2018-10-09T20:37:03.894Z,14.03
2018-10-09T20:39:32.675Z,9.70
2018-10-09T20:42:01.605Z,11.77
2018-10-09T20:44:30.591Z,13.57
2018-10-09T20:46:59.480Z,12.00
2018-10-09T20:49:28.312Z,14.97
2018-10-09T20:51:57.193Z,15.47
2018-10-09T20:54:26.174Z,18.03
2018-10-09T20:56:55.065Z,17.37
2018-10-09T20:59:23.872Z,15.87
2018-10-09T21:01:52.678Z,17.00
2018-10-09T21:04:21.528Z,18.57
2018-10-09T21:06:50.392Z,16.70
2018-10-09T21:09:19.185Z,18.73
2018-10-09T21:11:48.056Z,11.70
2018-10-09T21:14:16.880Z,13.17
2018-10-09T21:16:45.712Z,18.57
2018-10-09T21:19:14.529Z,15.00
2018-10-09T21:21:43.278Z,9.50
2018-10-09T21:24:12.070Z,13.47
2018-10-09T21:26:40.901Z,11.27
2018-10-09T21:29:09.706Z,16.93
2018-10-09T21:31:38.517Z,13.57
2018-10-09T21:34:07.376Z,16.27
2018-10-09T21:36:36.199Z,18.70
2018-10-09T21:39:06.960Z,17.17
2018-10-09T21:41:35.817Z,16.70
2018-10-09T21:44:04.624Z,13.07
2018-10-09T21:46:33.478Z,12.43
2018-10-09T21:49:02.282Z,12.27
2018-10-09T21:51:31.115Z,22.90
2018-10-09T21:53:59.927Z,17.87
2018-10-09T21:56:28.813Z,20.60
2018-10-09T21:58:57.596Z,16.40
2018-10-09T22:01:26.404Z,17.07
2018-10-09T22:03:55.235Z,17.83
2018-10-09T22:06:24.083Z,18.77
2018-10-09T22:08:52.926Z,26.43
2018-10-09T22:11:21.760Z,29.43
2018-10-09T22:13:50.986Z,15.63
2018-10-09T22:16:19.851Z,10.97
2018-10-09T22:18:48.665Z,15.57
2018-10-09T22:21:17.470Z,12.93
2018-10-09T22:23:46.362Z,12.40
2018-10-09T22:26:15.169Z,13.43
2018-10-09T22:28:44.116Z,13.93
2018-10-09T22:31:12.965Z,15.00
2018-10-09T22:33:41.774Z,17.53
2018-10-09T22:36:10.615Z,15.60
2018-10-09T22:38:39.489Z,14.57
2018-10-09T22:41:08.563Z,12.40
2018-10-09T22:43:37.406Z,14.47
2018-10-09T22:46:06.256Z,12.83
2018-10-09T22:48:35.091Z,14.53
2018-10-09T22:51:03.844Z,12.87
2018-10-09T22:53:32.646Z,18.67
2018-10-09T22:56:01.472Z,15.43
2018-10-09T22:58:30.229Z,13.93
2018-10-09T23:00:58.964Z,13.93
2018-10-09T23:03:27.821Z,15.33
2018-10-09T23:05:56.551Z,13.23
2018-10-09T23:08:25.467Z,11.33
2018-10-09T23:10:54.328Z,11.60
2018-10-09T23:13:23.180Z,13.57
2018-10-09T23:15:52.004Z,13.90
2018-10-09T23:18:20.754Z,16.33
2018-10-09T23:20:49.602Z,18.17
2018-10-09T23:23:18.360Z,13.97
2018-10-09T23:25:47.121Z,11.83
2018-10-09T23:28:15.939Z,14.30
2018-10-09T23:30:44.733Z,11.97
2018-10-09T23:33:13.476Z,14.13
2018-10-09T23:35:42.244Z,14.87
2018-10-09T23:38:11.001Z,11.30
2018-10-09T23:40:39.754Z,14.00
2018-10-09T23:43:08.569Z,14.67
2018-10-09T23:45:37.602Z,11.77
2018-10-09T23:48:09.256Z,13.70
2018-10-09T23:50:42.433Z,14.07
2018-10-09T23:53:11.561Z,14.27
2018-10-09T23:55:40.390Z,12.10
2018-10-09T23:58:09.184Z,12.10
